Time;durP1;ratioP1;P1;durP2;ratioP2;P2;SDS_P1;SDS_P2;PMS_P1;PMS_P2;Temp;Humidity;BMP_temperature;BMP_pressure;BME280_temperature;BME280_humidity;BME280_pressure;Samples;Min_cycle;Max_cycle;Signal;HPM_P1;HPM_P2
2023/02/28 00:00:45;;;;;;;1.98;1.15;;;;;;;-1.15;81.32;100952.97;6370902;28;20123;-75
2023/02/28 00:03:46;;;;;;;1.40;1.02;;;;;;;-1.20;81.61;100962.34;6370369;28;20039;-75
2023/02/28 00:06:47;;;;;;;2.38;1.38;;;;;;;-1.11;80.78;100964.94;6370223;28;20123;-75
2023/02/28 00:09:47;;;;;;;2.28;1.00;;;;;;;-1.23;80.65;100964.91;6373184;27;20506;-75
2023/02/28 00:12:56;;;;;;;1.63;1.00;;;;;;;-1.21;81.58;100970.91;6364062;27;20043;-75
2023/02/28 00:16:03;;;;;;;1.52;1.13;;;;;;;-1.20;81.38;100979.44;6350529;28;20163;-75
2023/02/28 00:19:04;;;;;;;2.42;0.70;;;;;;;-1.33;81.17;100973.44;6349125;28;20557;-75
2023/02/28 00:22:05;;;;;;;0.85;0.80;;;;;;;-1.24;80.49;100984.53;6350202;28;20067;-75
2023/02/28 00:25:07;;;;;;;1.58;1.15;;;;;;;-1.22;81.55;100981.97;6349088;28;20051;-75
2023/02/28 00:28:08;;;;;;;1.65;0.80;;;;;;;-1.28;81.11;100976.84;6348983;28;20071;-75
2023/02/28 00:31:08;;;;;;;2.40;1.25;;;;;;;-1.12;81.63;100993.94;6350161;28;20040;-75
2023/02/28 00:34:09;;;;;;;1.00;0.90;;;;;;;-1.14;82.13;100984.56;6348976;28;20407;-75
2023/02/28 00:37:11;;;;;;;2.70;0.60;;;;;;;-1.18;82.24;100987.97;6349794;28;20122;-75
2023/02/28 00:40:12;;;;;;;0.95;0.85;;;;;;;-1.14;81.53;100985.41;6348660;28;20556;-75
2023/02/28 00:43:14;;;;;;;1.83;1.35;;;;;;;-1.17;81.54;100990.53;6350904;27;20055;-75
2023/02/28 00:46:18;;;;;;;1.13;0.93;;;;;;;-1.08;82.09;100980.28;6355430;27;20057;-75
2023/02/28 00:49:20;;;;;;;2.38;1.23;;;;;;;-1.06;81.39;100981.16;6375009;27;20035;-75
2023/02/28 00:52:21;;;;;;;3.67;1.07;;;;;;;-0.96;81.71;100986.31;6375243;27;20546;-75
2023/02/28 00:55:22;;;;;;;2.25;1.33;;;;;;;-0.88;81.10;100993.13;6374922;27;20041;-75
2023/02/28 00:58:22;;;;;;;3.72;1.10;;;;;;;-0.94;80.77;100979.47;6373913;27;20035;-75
2023/02/28 01:01:26;;;;;;;1.02;1.00;;;;;;;-0.93;80.05;100987.13;6373592;27;20039;-75
2023/02/28 01:04:27;;;;;;;2.88;1.33;;;;;;;-0.86;79.82;100986.31;6374877;27;20039;-75
2023/02/28 01:07:28;;;;;;;1.25;0.98;;;;;;;-0.77;78.53;100993.13;6374793;27;20461;-75
2023/02/28 01:10:31;;;;;;;0.88;0.85;;;;;;;-0.78;78.25;100994.00;6373656;27;20035;-75
2023/02/28 01:13:32;;;;;;;0.47;0.47;;;;;;;-0.74;77.56;100985.47;6374587;27;20039;-75
2023/02/28 01:16:32;;;;;;;1.30;0.93;;;;;;;-0.58;77.51;100998.28;6374251;27;20042;-75
2023/02/28 01:19:34;;;;;;;1.38;1.27;;;;;;;-0.66;77.18;100986.31;6374383;27;20047;-75
2023/02/28 01:22:35;;;;;;;1.80;1.33;;;;;;;-0.58;77.02;101001.69;6372039;27;20043;-75
2023/02/28 01:25:36;;;;;;;1.55;0.75;;;;;;;-0.66;77.03;101009.41;6373042;27;20069;-75
2023/02/28 01:28:37;;;;;;;0.68;0.68;;;;;;;-0.62;76.47;101017.91;6372962;27;20043;-75
2023/02/28 01:31:38;;;;;;;1.15;0.77;;;;;;;-0.52;76.39;101017.06;6373050;27;20066;-75
2023/02/28 01:34:38;;;;;;;1.60;0.60;;;;;;;-0.48;76.78;101013.66;6368771;27;20408;-75
2023/02/28 01:37:39;;;;;;;2.95;1.58;;;;;;;-0.39;76.52;101017.06;6348340;28;20500;-75
2023/02/28 01:40:41;;;;;;;0.75;0.75;;;;;;;-0.50;76.13;101022.19;6347136;28;20063;-75
2023/02/28 01:43:44;;;;;;;0.95;0.70;;;;;;;-0.38;75.01;101014.50;6346806;28;20055;-75
2023/02/28 01:46:45;;;;;;;0.95;0.93;;;;;;;-0.38;76.74;101011.09;6348241;27;20476;-75
2023/02/28 01:49:47;;;;;;;18.40;1.63;;;;;;;-0.36;76.11;101007.66;6347912;28;20038;-73
2023/02/28 01:52:50;;;;;;;0.80;0.80;;;;;;;-0.33;76.48;101007.69;6347372;28;20046;-72
2023/02/28 01:55:53;;;;;;;0.70;0.63;;;;;;;-0.42;75.20;101005.09;6347006;28;20449;-73
2023/02/28 01:58:55;;;;;;;1.13;1.02;;;;;;;-0.38;75.42;101000.84;6345938;28;20039;-73
2023/02/28 02:01:55;;;;;;;0.80;0.80;;;;;;;-0.48;76.64;101013.66;6345981;28;20032;-73
2023/02/28 02:05:07;;;;;;;0.60;0.60;;;;;;;-0.52;77.11;101000.84;6345876;28;20059;-73
2023/02/28 02:08:11;;;;;;;4.82;1.67;;;;;;;-0.47;76.63;101001.69;6346896;28;20114;-73
2023/02/28 02:11:17;;;;;;;0.60;0.40;;;;;;;-0.41;77.77;101002.53;6347080;28;20400;-72
2023/02/28 02:14:21;;;;;;;1.50;1.08;;;;;;;-0.33;76.15;101009.38;6345664;28;20044;-73
2023/02/28 02:17:38;;;;;;;1.20;0.88;;;;;;;-0.38;76.77;101001.69;6345592;28;20039;-72
2023/02/28 02:21:16;;;;;;;3.25;1.17;;;;;;;-0.32;76.08;101008.53;6345455;28;20038;-72
2023/02/28 02:24:47;;;;;;;2.63;1.10;;;;;;;-0.30;77.09;101002.53;6308824;28;20059;-72
2023/02/28 02:27:59;;;;;;;2.65;1.27;;;;;;;-0.29;76.11;101004.25;6345386;28;20043;-72
2023/02/28 02:31:06;;;;;;;2.42;0.93;;;;;;;-0.32;76.40;100993.13;6346607;28;20047;-72
2023/02/28 02:34:09;;;;;;;2.17;0.93;;;;;;;-0.42;77.44;100993.13;6345169;28;20042;-72
2023/02/28 02:37:16;;;;;;;1.20;0.63;;;;;;;-0.23;76.96;100999.13;6345131;28;20123;-72
2023/02/28 02:40:25;;;;;;;1.52;1.17;;;;;;;-0.41;77.00;100994.84;6346452;27;20043;-73
2023/02/28 02:43:35;;;;;;;1.20;0.75;;;;;;;-0.39;77.02;101004.25;6367845;27;20527;-72
2023/02/28 02:46:41;;;;;;;1.60;0.95;;;;;;;-0.36;77.36;101001.69;6400408;27;20095;-72
2023/02/28 02:49:47;;;;;;;7.43;1.13;;;;;;;-0.20;77.42;101003.38;6371695;27;20043;-72
2023/02/28 02:52:54;;;;;;;3.22;1.52;;;;;;;-0.19;76.40;101010.19;6371653;27;20583;-73
2023/02/28 02:55:57;;;;;;;0.65;0.65;;;;;;;-0.27;76.21;101006.78;6370656;27;20051;-72
2023/02/28 02:59:07;;;;;;;0.35;0.35;;;;;;;-0.12;75.97;101005.94;6371554;27;20039;-72
2023/02/28 03:02:12;;;;;;;4.68;1.02;;;;;;;-0.14;75.43;101007.66;6371399;27;20411;-72
2023/02/28 03:05:44;;;;;;;0.98;0.90;;;;;;;-0.22;76.09;101015.34;6370345;27;20054;-72
2023/02/28 03:08:45;;;;;;;0.60;0.57;;;;;;;-0.22;75.65;101005.09;6370057;27;20130;-72
2023/02/28 03:11:45;;;;;;;1.08;0.47;;;;;;;-0.08;75.86;101002.50;6371482;27;20039;-72
2023/02/28 03:15:08;;;;;;;2.65;1.00;;;;;;;-0.17;76.06;100993.09;6370076;28;20091;-72
2023/02/28 03:18:30;;;;;;;;;;;;;;;-0.09;76.13;100996.50;6370594;28;20127;-72
2023/02/28 03:21:42;;;;;;;1.67;0.73;;;;;;;-0.08;75.67;100992.25;6370021;28;19919;-72
2023/02/28 03:25:21;;;;;;;0.82;0.73;;;;;;;-0.18;76.08;100991.41;6371246;27;20046;-72
2023/02/28 03:28:40;;;;;;;3.13;0.65;;;;;;;-0.07;75.80;100999.91;6371172;28;20487;-72
2023/02/28 03:31:53;;;;;;;0.75;0.70;;;;;;;-0.07;75.57;101005.06;6369990;28;20043;-73
2023/02/28 03:35:06;;;;;;;0.75;0.75;;;;;;;-0.30;76.28;101007.66;6360206;28;20055;-74
2023/02/28 03:38:15;;;;;;;1.27;0.80;;;;;;;-0.12;75.98;101004.22;6345668;28;20047;-73
2023/02/28 03:41:21;;;;;;;2.47;0.93;;;;;;;-0.13;75.11;100999.09;6345851;28;20043;-73
2023/02/28 03:44:28;;;;;;;2.60;1.25;;;;;;;-0.27;76.69;101017.06;6345310;28;20075;-73
2023/02/28 03:47:39;;;;;;;1.63;0.70;;;;;;;-0.10;76.10;101017.91;6349365;28;20040;-73
2023/02/28 03:50:46;;;;;;;0.90;0.60;;;;;;;-0.05;75.83;101025.59;6349131;28;20103;-73
2023/02/28 03:53:54;;;;;;;0.68;0.65;;;;;;;-0.05;75.58;101023.00;6350408;28;20040;-73
2023/02/28 03:57:12;;;;;;;1.30;1.20;;;;;;;-0.10;75.04;101019.63;6350157;28;20127;-73
2023/02/28 04:00:19;;;;;;;4.88;1.30;;;;;;;-0.07;75.60;101015.31;6350136;28;20043;-73
2023/02/28 04:03:20;;;;;;;1.33;0.90;;;;;;;-0.11;75.92;101020.47;6349022;28;20032;-73
2023/02/28 04:06:23;;;;;;;4.60;1.08;;;;;;;-0.01;75.93;101027.28;6349970;28;20058;-73
2023/02/28 04:09:23;;;;;;;1.15;0.95;;;;;;;0.01;75.92;101024.72;6349868;28;20046;-72
2023/02/28 04:12:25;;;;;;;0.50;0.43;;;;;;;-0.03;76.46;101023.88;6349938;28;20039;-73
2023/02/28 04:15:27;;;;;;;1.75;1.10;;;;;;;0.12;76.36;101038.38;6348968;28;20067;-75
2023/02/28 04:18:30;;;;;;;0.82;0.82;;;;;;;0.06;75.34;101025.56;6348966;28;20039;-75
2023/02/28 04:21:40;;;;;;;3.00;1.67;;;;;;;0.10;75.51;101027.25;6350123;28;20086;-75
2023/02/28 04:24:41;;;;;;;3.10;1.55;;;;;;;0.02;75.31;101026.41;6349892;28;20039;-75
2023/02/28 04:27:44;;;;;;;1.90;1.00;;;;;;;0.14;75.70;101034.09;6348551;28;20056;-75
2023/02/28 04:30:45;;;;;;;1.80;1.38;;;;;;;-0.01;76.37;101019.59;6364062;27;20380;-75
2023/02/28 04:33:46;;;;;;;1.02;0.70;;;;;;;0.11;76.53;101016.16;6357904;27;20452;-75
2023/02/28 04:36:53;;;;;;;0.38;0.38;;;;;;;-0.08;75.86;101017.91;6373891;27;20035;-75
2023/02/28 04:39:54;;;;;;;0.70;0.70;;;;;;;-0.02;75.86;101021.31;6374949;27;20410;-75
2023/02/28 04:42:55;;;;;;;2.72;1.70;;;;;;;0.04;77.31;101027.25;6374789;27;20169;-75
2023/02/28 04:45:58;;;;;;;0.95;0.90;;;;;;;-0.01;77.41;101028.13;6374825;27;20039;-75
2023/02/28 04:48:59;;;;;;;0.88;0.60;;;;;;;0.05;76.70;101026.44;6354491;27;20070;-75
2023/02/28 04:52:00;;;;;;;3.25;1.55;;;;;;;-0.04;77.25;101029.88;6349058;28;20468;-75
2023/02/28 04:55:01;;;;;;;4.03;1.58;;;;;;;-0.03;76.09;101027.28;6347810;28;20047;-75
2023/02/28 04:58:02;;;;;;;1.83;1.10;;;;;;;0.08;76.18;101023.84;6349033;28;20475;-75
2023/02/28 05:01:24;;;;;;;3.97;1.33;;;;;;;0.18;76.10;101036.63;6347588;28;20051;-75
2023/02/28 05:04:25;;;;;;;1.70;0.93;;;;;;;0.11;77.13;101029.81;6347697;27;20050;-75
2023/02/28 05:07:26;;;;;;;1.55;0.80;;;;;;;0.14;76.72;101019.53;6357030;27;20039;-75
2023/02/28 05:10:26;;;;;;;1.40;0.88;;;;;;;0.03;76.46;101028.13;6373841;27;20073;-75
2023/02/28 05:13:31;;;;;;;1.55;1.13;;;;;;;0.06;76.60;101030.69;6366846;27;20039;-76
2023/02/28 05:16:32;;;;;;;5.15;0.98;;;;;;;-0.03;77.70;101024.72;6364651;27;20050;-75
2023/02/28 05:19:34;;;;;;;0.77;0.77;;;;;;;-0.06;77.76;101029.88;6363171;27;20039;-75
2023/02/28 05:22:37;;;;;;;0.82;0.80;;;;;;;0.03;77.67;101029.00;6364688;27;20118;-75
2023/02/28 05:25:39;;;;;;;2.05;1.35;;;;;;;0.01;79.04;101033.28;6364316;27;20038;-75
2023/02/28 05:28:40;;;;;;;0.83;0.47;;;;;;;0.11;78.04;101040.09;6366134;27;20365;-75
2023/02/28 05:31:40;;;;;;;1.52;1.33;;;;;;;0.02;78.04;101040.09;6365662;27;20291;-75
2023/02/28 05:34:41;;;;;;;0.80;0.80;;;;;;;0.06;78.93;101041.78;6373672;27;20035;-75
2023/02/28 05:37:42;;;;;;;0.95;0.85;;;;;;;0.04;78.49;101034.97;6353616;27;20471;-75
2023/02/28 05:40:43;;;;;;;3.00;1.33;;;;;;;0.07;79.24;101037.53;6351600;27;20039;-75
2023/02/28 05:43:44;;;;;;;2.22;0.85;;;;;;;-0.07;80.69;101045.25;6373294;27;20058;-75
2023/02/28 05:46:45;;;;;;;1.88;1.15;;;;;;;0.07;79.41;101040.09;6371553;27;20074;-75
2023/02/28 05:49:46;;;;;;;1.42;0.85;;;;;;;0.30;79.87;101045.19;6366498;27;20384;-75
2023/02/28 05:52:51;;;;;;;2.63;1.20;;;;;;;0.19;79.66;101053.75;6369644;27;20046;-75
2023/02/28 05:55:52;;;;;;;0.85;0.82;;;;;;;0.09;78.28;101046.94;6369708;27;20118;-75
2023/02/28 05:58:53;;;;;;;0.88;0.80;;;;;;;0.15;78.59;101044.34;6373276;27;20440;-75
2023/02/28 06:01:55;;;;;;;1.48;0.60;;;;;;;0.14;77.26;101046.91;6371497;27;20142;-75
2023/02/28 06:04:56;;;;;;;1.95;1.00;;;;;;;0.27;76.86;101045.16;6370889;27;20039;-75
2023/02/28 06:07:56;;;;;;;2.28;0.73;;;;;;;0.11;76.82;101042.66;6371115;27;20191;-75
2023/02/28 06:10:57;;;;;;;1.23;0.88;;;;;;;0.09;77.51;101049.50;6370971;27;20042;-75
2023/02/28 06:14:00;;;;;;;0.82;0.60;;;;;;;0.25;76.84;101041.75;6357970;27;20126;-75
2023/02/28 06:17:01;;;;;;;0.85;0.85;;;;;;;0.48;77.29;101052.81;6347127;28;20096;-75
2023/02/28 06:20:03;;;;;;;1.90;1.60;;;;;;;0.41;76.29;101053.69;6345983;28;20040;-75
2023/02/28 06:23:04;;;;;;;2.10;1.90;;;;;;;0.37;75.59;101049.41;6356649;27;20040;-75
2023/02/28 06:26:05;;;;;;;0.75;0.63;;;;;;;0.40;75.35;101052.00;6357657;27;20530;-76
2023/02/28 06:29:05;;;;;;;1.10;1.00;;;;;;;0.29;75.63;101044.34;6355275;27;20400;-73
2023/02/28 06:32:06;;;;;;;2.30;1.60;;;;;;;0.32;75.74;101044.31;6347608;28;20043;-75
2023/02/28 06:35:07;;;;;;;1.35;1.23;;;;;;;0.36;75.93;101055.44;6362831;27;20122;-75
2023/02/28 06:38:13;;;;;;;1.38;0.95;;;;;;;0.38;75.56;101048.56;6372500;27;20046;-75
2023/02/28 06:41:14;;;;;;;5.05;2.63;;;;;;;0.31;75.78;101044.31;6371113;27;20043;-75
2023/02/28 06:44:17;;;;;;;1.63;1.52;;;;;;;0.39;75.27;101052.84;6366622;27;20047;-75
2023/02/28 06:47:18;;;;;;;3.92;1.30;;;;;;;0.44;75.12;101040.84;6345706;28;20050;-76
2023/02/28 06:50:20;;;;;;;4.65;2.35;;;;;;;0.39;74.73;101046.00;6346872;28;20403;-75
2023/02/28 06:53:21;;;;;;;1.05;0.93;;;;;;;0.58;74.96;101046.78;6364282;27;20059;-75
2023/02/28 06:56:21;;;;;;;4.20;2.72;;;;;;;0.92;73.62;101041.47;6366833;27;20039;-76
2023/02/28 06:59:22;;;;;;;4.60;2.97;;;;;;;1.06;72.60;101046.56;6370491;27;20039;-75
2023/02/28 07:02:23;;;;;;;3.60;2.55;;;;;;;1.08;72.54;101039.69;6359987;27;20051;-75
2023/02/28 07:05:24;;;;;;;2.42;1.75;;;;;;;1.11;72.59;101049.97;6346307;28;20122;-75
2023/02/28 07:08:26;;;;;;;3.72;1.80;;;;;;;1.06;72.86;101048.28;6368746;27;20039;-76
2023/02/28 07:11:28;;;;;;;1.03;0.97;;;;;;;1.14;72.67;101052.50;6371268;27;20043;-73
2023/02/28 07:14:29;;;;;;;2.23;1.40;;;;;;;1.18;71.67;101061.06;6363748;27;20286;-73
2023/02/28 07:17:29;;;;;;;3.38;1.63;;;;;;;1.07;72.13;101061.13;6355091;27;20036;-73
2023/02/28 07:20:33;;;;;;;1.10;1.00;;;;;;;1.16;73.14;101066.19;6347318;28;20044;-73
2023/02/28 07:23:34;;;;;;;1.88;1.30;;;;;;;1.14;72.04;101067.91;6349523;28;20046;-73
2023/02/28 07:26:35;;;;;;;1.63;1.53;;;;;;;1.31;72.48;101077.25;6350775;28;20075;-73
2023/02/28 07:29:38;;;;;;;2.92;2.13;;;;;;;1.26;72.91;101072.16;6350575;28;20509;-73
2023/02/28 07:32:39;;;;;;;1.92;1.52;;;;;;;1.27;72.01;101073.00;6350785;28;20088;-73
2023/02/28 07:35:40;;;;;;;1.75;1.38;;;;;;;1.38;71.52;101081.47;6349189;28;20043;-72
2023/02/28 07:38:43;;;;;;;1.40;1.00;;;;;;;1.31;71.80;101072.94;6349250;28;20043;-72
2023/02/28 07:41:44;;;;;;;2.90;1.35;;;;;;;1.60;71.00;101077.03;6348965;28;20055;-73
2023/02/28 07:44:47;;;;;;;1.65;1.38;;;;;;;1.79;71.26;101076.03;6350269;28;20112;-73
2023/02/28 07:47:48;;;;;;;4.95;1.42;;;;;;;1.90;71.53;101091.38;6348977;28;20063;-72
2023/02/28 07:50:55;;;;;;;4.78;1.63;;;;;;;1.97;70.13;101089.59;6350207;28;20042;-72
2023/02/28 07:54:01;;;;;;;2.58;1.60;;;;;;;1.97;69.96;101089.59;6368083;27;20043;-72
2023/02/28 07:57:02;;;;;;;4.10;1.60;;;;;;;1.90;69.92;101095.69;6375308;27;20495;-72
2023/02/28 08:00:05;;;;;;;1.52;1.15;;;;;;;2.05;70.48;101087.81;6374149;27;20118;-72
2023/02/28 08:03:11;;;;;;;2.42;1.42;;;;;;;2.28;69.83;101090.16;6375354;27;20078;-72
2023/02/28 08:06:20;;;;;;;3.47;2.22;;;;;;;2.29;68.97;101084.16;6375433;27;20126;-72
2023/02/28 08:09:21;;;;;;;7.57;3.75;;;;;;;2.21;69.11;101080.78;6374253;27;20042;-72
2023/02/28 08:12:21;;;;;;;5.20;1.98;;;;;;;2.22;68.90;101087.63;6374007;27;20035;-72
2023/02/28 08:15:22;;;;;;;2.63;2.22;;;;;;;2.26;69.07;101088.47;6374921;27;20043;-72
2023/02/28 08:18:24;;;;;;;5.55;2.00;;;;;;;2.37;68.66;101089.22;6358763;27;20054;-72
2023/02/28 08:21:24;;;;;;;3.72;2.42;;;;;;;2.13;68.98;101090.31;6346844;28;20051;-72
2023/02/28 08:24:25;;;;;;;3.90;1.25;;;;;;;2.22;69.96;101095.38;6383349;27;20065;-73
2023/02/28 08:27:26;;;;;;;4.00;2.28;;;;;;;2.72;69.40;101093.09;6375327;27;20047;-72
2023/02/28 08:30:29;;;;;;;4.32;2.42;;;;;;;2.75;67.78;101088.78;6373326;27;20104;-72
2023/02/28 08:33:31;;;;;;;3.30;2.38;;;;;;;2.87;68.95;101097.25;6373780;27;20046;-72
2023/02/28 08:36:34;;;;;;;2.60;1.73;;;;;;;2.93;68.16;101097.16;6375032;27;20039;-72
2023/02/28 08:39:36;;;;;;;2.83;2.35;;;;;;;3.02;67.06;101097.03;6373821;27;20043;-72
2023/02/28 08:42:36;;;;;;;4.10;2.00;;;;;;;2.95;68.71;101095.41;6373502;27;20055;-73
2023/02/28 08:45:37;;;;;;;3.65;2.00;;;;;;;2.84;67.69;101098.09;6374533;27;20043;-72
2023/02/28 08:48:38;;;;;;;2.85;2.15;;;;;;;3.13;68.21;101102.91;6356376;27;20414;-73
2023/02/28 08:51:41;;;;;;;8.13;2.25;;;;;;;2.83;67.84;101099.00;6373494;27;20035;-74
2023/02/28 08:54:42;;;;;;;3.47;2.05;;;;;;;3.01;67.77;101100.50;6373446;27;20039;-74
2023/02/28 08:57:45;;;;;;;3.08;2.50;;;;;;;3.10;67.26;101099.50;6373392;27;20183;-73
2023/02/28 09:00:48;;;;;;;6.22;3.78;;;;;;;3.14;67.92;101104.59;6374108;27;20104;-73
2023/02/28 09:03:50;;;;;;;4.25;2.58;;;;;;;3.29;68.87;101093.22;6373214;27;20100;-71
2023/02/28 09:06:51;;;;;;;3.78;2.25;;;;;;;3.25;68.73;101085.53;6374278;27;20039;-70
2023/02/28 09:09:55;;;;;;;4.45;2.63;;;;;;;3.36;68.62;101094.00;6374494;27;20035;-70
2023/02/28 09:12:58;;;;;;;6.25;2.70;;;;;;;3.50;68.22;101104.09;6372942;27;20042;-72
2023/02/28 09:16:01;;;;;;;3.40;2.30;;;;;;;3.60;67.60;101093.63;6373943;27;20046;-72
2023/02/28 09:19:02;;;;;;;4.50;2.80;;;;;;;3.51;69.50;101104.06;6372830;27;20111;-72
2023/02/28 09:22:05;;;;;;;4.72;2.97;;;;;;;3.70;68.18;101103.78;6372807;27;20467;-73
2023/02/28 09:25:06;;;;;;;2.67;2.40;;;;;;;3.88;67.67;101100.91;6372796;27;20115;-72
2023/02/28 09:28:07;;;;;;;2.13;1.67;;;;;;;3.92;67.90;101097.41;6372565;27;20448;-71
2023/02/28 09:31:20;;;;;;;6.60;2.30;;;;;;;3.74;67.05;101106.28;6373804;27;20523;-70
2023/02/28 09:34:21;;;;;;;5.43;2.10;;;;;;;3.83;66.36;101102.75;6372481;27;20406;-70
2023/02/28 09:37:23;;;;;;;3.17;2.08;;;;;;;3.90;68.87;101099.16;6373598;27;20039;-70
2023/02/28 09:40:26;;;;;;;3.13;2.40;;;;;;;4.05;66.74;101095.47;6373425;27;20043;-70
2023/02/28 09:43:33;;;;;;;6.27;3.27;;;;;;;4.09;66.79;101098.84;6372174;27;20100;-70
2023/02/28 09:46:47;;;;;;;4.35;2.95;;;;;;;4.18;68.37;101109.88;6373544;27;20047;-73
2023/02/28 09:49:51;;;;;;;6.90;3.60;;;;;;;4.32;68.60;101116.50;6372700;27;20035;-74
2023/02/28 09:52:53;;;;;;;6.45;3.05;;;;;;;4.48;68.49;101119.69;6372716;27;20043;-74
2023/02/28 09:55:59;;;;;;;3.65;2.20;;;;;;;4.83;67.37;101119.84;6372615;27;20476;-74
2023/02/28 09:59:41;;;;;;;6.25;2.58;;;;;;;4.63;66.76;101107.31;6373445;27;20066;-70
2023/02/28 10:03:19;;;;;;;5.15;2.65;;;;;;;4.24;66.16;101108.91;6337911;27;20055;-70
2023/02/28 10:06:23;;;;;;;3.33;2.58;;;;;;;4.55;66.50;101109.19;6371457;27;20054;-71
2023/02/28 10:09:32;;;;;;;3.83;2.58;;;;;;;4.84;64.51;101105.19;6372483;27;20047;-70
2023/02/28 10:12:34;;;;;;;4.32;2.47;;;;;;;4.88;65.25;101103.38;6371158;27;20043;-71
2023/02/28 10:15:35;;;;;;;5.65;2.45;;;;;;;4.85;63.95;101101.72;6370937;27;20046;-71
2023/02/28 10:18:47;;;;;;;3.92;2.38;;;;;;;5.11;65.62;101101.16;6370937;27;20150;-71
2023/02/28 10:21:56;;;;;;;2.45;2.22;;;;;;;5.13;65.04;101096.81;6356583;27;20092;-74
2023/02/28 10:25:02;;;;;;;3.33;2.33;;;;;;;4.99;63.00;101094.50;6343516;28;20047;-74
2023/02/28 10:28:15;;;;;;;5.10;3.17;;;;;;;5.35;64.62;101089.41;6347355;28;20051;-74
2023/02/28 10:31:19;;;;;;;7.82;2.83;;;;;;;5.14;62.61;101097.66;6347735;28;20047;-74
2023/02/28 10:34:22;;;;;;;7.30;3.80;;;;;;;5.13;62.21;101096.81;6347045;28;20046;-74
2023/02/28 10:37:23;;;;;;;4.25;2.95;;;;;;;5.14;62.55;101087.31;6347130;28;20040;-74
2023/02/28 10:40:32;;;;;;;6.85;2.97;;;;;;;5.25;62.91;101088.78;6347042;28;20126;-74
2023/02/28 10:43:33;;;;;;;6.22;3.92;;;;;;;5.08;63.37;101088.28;6345559;28;20059;-71
2023/02/28 10:46:34;;;;;;;4.30;2.72;;;;;;;5.27;62.18;101080.94;6345182;28;20051;-70
2023/02/28 10:49:37;;;;;;;6.38;3.70;;;;;;;5.41;62.72;101089.25;6345175;28;20054;-74
2023/02/28 10:52:40;;;;;;;5.07;2.92;;;;;;;5.40;63.34;101076.38;6345924;28;20479;-74
2023/02/28 10:55:41;;;;;;;;;;;;;;;5.73;61.87;101082.47;6347070;28;20469;-74
2023/02/28 10:58:57;;;;;;;3.97;2.88;;;;;;;5.78;60.72;101082.34;6345929;28;19926;-74
2023/02/28 11:01:58;;;;;;;4.00;2.58;;;;;;;5.72;61.31;101080.75;6347124;28;20415;-70
2023/02/28 11:04:59;;;;;;;8.50;3.05;;;;;;;5.30;61.20;101077.47;6344758;28;20039;-70
2023/02/28 11:08:15;;;;;;;6.25;3.20;;;;;;;5.45;61.99;101075.34;6346509;28;20408;-71
2023/02/28 11:11:16;;;;;;;4.22;2.50;;;;;;;5.55;61.06;101068.22;6344771;28;20043;-73
2023/02/28 11:14:35;;;;;;;4.63;2.97;;;;;;;5.66;61.23;101065.38;6345916;28;20129;-71
2023/02/28 11:17:36;;;;;;;5.50;2.90;;;;;;;5.59;61.01;101063.84;6344390;28;20044;-70
2023/02/28 11:20:38;;;;;;;3.17;2.20;;;;;;;5.46;62.02;101065.88;6344626;28;20520;-70
2023/02/28 11:23:41;;;;;;;4.47;2.20;;;;;;;5.32;60.96;101058.44;6344601;28;20035;-70
2023/02/28 11:26:45;;;;;;;4.90;3.33;;;;;;;5.12;62.24;101056.28;6378895;27;20044;-70
2023/02/28 11:29:47;;;;;;;6.47;3.13;;;;;;;5.26;63.89;101058.56;6344615;28;20044;-70
2023/02/28 11:32:49;;;;;;;4.93;3.30;;;;;;;5.12;61.60;101052.84;6345399;28;20040;-71
2023/02/28 11:35:52;;;;;;;6.22;3.10;;;;;;;5.12;61.47;101052.84;6346027;28;20035;-74
2023/02/28 11:38:54;;;;;;;;;;;;;;;5.26;62.80;101043.03;6346838;28;20119;-74
2023/02/28 11:42:33;;;;;;;5.93;3.00;;;;;;;5.27;61.87;101046.47;6379315;27;19920;-74
2023/02/28 11:45:43;;;;;;;8.13;2.65;;;;;;;5.30;61.87;101038.66;6346440;28;20055;-74
2023/02/28 11:48:58;;;;;;;4.30;3.45;;;;;;;5.40;61.93;101043.56;6345042;28;20156;-74
2023/02/28 11:52:31;;;;;;;4.80;2.40;;;;;;;5.43;60.91;101047.81;6345122;28;20039;-74
2023/02/28 11:55:38;;;;;;;;;;;;;;;5.39;60.67;101044.44;6346546;28;20505;-74
2023/02/28 11:58:48;;;;;;;5.70;3.22;;;;;;;5.63;60.25;101035.25;6346478;28;20313;-74
2023/02/28 12:02:02;;;;;;;7.70;3.97;;;;;;;5.69;60.74;101034.25;6346071;28;20040;-74
2023/02/28 12:05:08;;;;;;;4.45;2.97;;;;;;;5.55;60.15;101033.72;6345538;28;20043;-74
2023/02/28 12:08:46;;;;;;;6.78;3.30;;;;;;;5.38;61.05;101031.56;6351140;28;20488;-74
2023/02/28 12:11:57;;;;;;;9.27;3.80;;;;;;;5.55;61.19;101031.97;6350734;27;20054;-74
2023/02/28 12:15:19;;;;;;;5.07;3.22;;;;;;;5.51;61.32;101025.19;6349838;28;20040;-74
2023/02/28 12:18:44;;;;;;;7.07;3.17;;;;;;;5.76;61.75;101020.22;6350595;28;20377;-74
2023/02/28 12:21:56;;;;;;;9.50;4.80;;;;;;;5.60;61.50;101018.91;6349411;28;20047;-74
2023/02/28 12:25:03;;;;;;;7.50;3.35;;;;;;;5.84;61.15;101015.69;6350493;28;20487;-74
2023/02/28 12:28:12;;;;;;;12.85;5.43;;;;;;;6.03;60.13;101026.50;6349376;28;20039;-74
2023/02/28 12:31:36;;;;;;;9.13;4.38;;;;;;;5.88;60.96;101019.06;6351090;28;20123;-74
2023/02/28 12:34:49;;;;;;;6.05;3.40;;;;;;;5.89;60.75;101019.91;6349356;28;20074;-74
2023/02/28 12:38:03;;;;;;;6.15;3.83;;;;;;;5.91;60.47;101020.72;6350232;28;20049;-74
2023/02/28 12:41:22;;;;;;;8.30;4.45;;;;;;;6.09;59.50;101022.84;6350329;28;20499;-74
2023/02/28 12:44:44;;;;;;;13.45;6.07;;;;;;;6.05;58.97;101026.44;6348651;28;20047;-74
2023/02/28 12:47:51;;;;;;;10.48;5.28;;;;;;;5.84;59.57;101020.03;6349964;28;20048;-74
2023/02/28 12:50:53;;;;;;;11.73;6.10;;;;;;;6.16;59.27;101014.03;6350089;28;20070;-74
2023/02/28 12:54:13;;;;;;;15.93;6.85;;;;;;;5.98;60.14;101017.13;6383041;27;20040;-74
2023/02/28 12:57:25;;;;;;;12.30;5.32;;;;;;;6.41;59.96;101014.22;6348463;28;20071;-73
2023/02/28 13:00:33;;;;;;;8.95;5.45;;;;;;;6.21;59.16;101014.75;6349615;28;20044;-74
2023/02/28 13:03:52;;;;;;;8.30;4.47;;;;;;;6.20;59.44;101014.81;6348748;28;20036;-74
2023/02/28 13:07:06;;;;;;;14.50;3.60;;;;;;;6.19;58.64;101024.31;6348611;28;20052;-74
2023/02/28 13:10:07;;;;;;;5.00;3.38;;;;;;;6.29;58.11;101017.13;6349621;28;20407;-74
2023/02/28 13:13:16;;;;;;;5.25;3.42;;;;;;;6.22;58.99;101021.66;6348116;28;20051;-74
2023/02/28 13:16:17;;;;;;;10.30;4.15;;;;;;;6.29;59.48;101019.72;6347831;28;20044;-74
2023/02/28 13:19:22;;;;;;;6.32;3.15;;;;;;;6.45;58.68;101023.59;6348095;28;20457;-74
2023/02/28 13:22:43;;;;;;;4.38;3.05;;;;;;;6.34;59.08;101015.28;6349085;28;20040;-74
2023/02/28 13:25:46;;;;;;;9.32;3.83;;;;;;;6.43;58.07;101017.59;6348794;28;20054;-74
2023/02/28 13:28:50;;;;;;;8.73;4.07;;;;;;;6.41;58.69;101018.53;6348774;28;20053;-73
2023/02/28 13:32:07;;;;;;;5.50;3.33;;;;;;;6.37;59.05;101012.59;6349381;28;20421;-74
2023/02/28 13:35:08;;;;;;;7.90;4.30;;;;;;;6.35;57.91;101013.53;6347646;28;20039;-74
2023/02/28 13:38:17;;;;;;;6.70;3.90;;;;;;;6.44;59.13;101000.28;6348686;28;20040;-74
2023/02/28 13:41:35;;;;;;;11.35;5.63;;;;;;;6.45;59.86;101007.19;6348524;28;20040;-74
2023/02/28 13:45:02;;;;;;;10.85;5.65;;;;;;;6.33;58.00;101012.72;6347147;28;20415;-74
2023/02/28 13:48:26;;;;;;;10.70;5.55;;;;;;;6.08;59.66;101007.38;6347489;28;20040;-73
2023/02/28 13:51:51;;;;;;;6.07;3.78;;;;;;;6.24;59.05;101006.91;6347171;28;20043;-74
2023/02/28 13:54:55;;;;;;;3.67;2.88;;;;;;;6.01;58.88;100996.31;6342212;27;20082;-74
2023/02/28 13:58:09;;;;;;;7.70;3.60;;;;;;;6.07;59.88;100998.72;6348112;28;20043;-74
2023/02/28 14:01:15;;;;;;;11.10;4.55;;;;;;;6.20;60.17;100999.28;6348329;28;20097;-74
2023/02/28 14:04:50;;;;;;;8.13;4.35;;;;;;;6.24;59.83;100990.50;6346801;28;20579;-71
2023/02/28 14:08:00;;;;;;;9.93;4.75;;;;;;;6.05;59.17;100990.16;6345959;28;20100;-70
2023/02/28 14:11:09;;;;;;;7.43;4.88;;;;;;;6.00;59.29;100987.69;6346167;28;20078;-70
2023/02/28 14:14:35;;;;;;;8.18;4.22;;;;;;;6.13;59.63;100985.59;6346915;28;20040;-71
2023/02/28 14:17:39;;;;;;;11.70;6.43;;;;;;;6.01;60.54;100986.81;6346858;28;20130;-72
2023/02/28 14:20:42;;;;;;;22.67;8.93;;;;;;;5.87;60.46;100981.13;6346938;28;20040;-72
2023/02/28 14:23:55;;;;;;;;;;;;;;;6.18;60.07;100983.75;6345892;28;20043;-71
2023/02/28 14:26:56;;;;;;;16.08;8.75;;;;;;;6.33;59.93;100986.81;6346509;28;19924;-71
2023/02/28 14:30:04;;;;;;;10.35;5.72;;;;;;;6.26;59.92;100986.13;6345910;28;20040;-71
2023/02/28 14:33:29;;;;;;;13.38;5.88;;;;;;;6.21;59.85;100990.59;6346513;28;20039;-72